createdAt,value
2023-03-19T00:02:17.222Z,7.80
2023-03-19T00:04:46.141Z,7.60
2023-03-19T00:07:13.872Z,7.60
2023-03-19T00:09:40.714Z,7.60
2023-03-19T00:12:07.933Z,7.70
2023-03-19T00:14:35.556Z,7.70
2023-03-19T00:19:29.442Z,7.60
2023-03-19T00:21:56.863Z,7.60
2023-03-19T00:24:23.556Z,7.60
2023-03-19T00:26:50.984Z,7.50
2023-03-19T00:29:17.984Z,7.50
2023-03-19T00:31:45.372Z,7.40
2023-03-19T00:34:13.269Z,7.30
2023-03-19T00:36:40.047Z,7.30
2023-03-19T00:39:07.484Z,7.40
2023-03-19T00:41:34.355Z,7.30
2023-03-19T00:44:01.179Z,7.30
2023-03-19T00:46:27.874Z,7.20
2023-03-19T00:48:55.763Z,7.10
2023-03-19T00:51:23.831Z,7.20
2023-03-19T00:53:51.670Z,7.10
2023-03-19T00:56:19.228Z,7.10
2023-03-19T00:58:47.338Z,7.00
2023-03-19T01:01:17.614Z,7.00
2023-03-19T01:03:45.421Z,6.90
2023-03-19T01:06:12.884Z,6.80
2023-03-19T01:08:39.696Z,6.80
2023-03-19T01:11:14.213Z,6.90
2023-03-19T01:13:42.052Z,6.90
2023-03-19T01:16:09.936Z,6.90
2023-03-19T01:18:37.455Z,6.80
2023-03-19T01:21:04.581Z,6.80
2023-03-19T01:23:31.761Z,6.60
2023-03-19T01:25:58.526Z,6.60
2023-03-19T01:28:25.495Z,6.60
2023-03-19T01:30:52.416Z,6.70
2023-03-19T01:33:20.598Z,6.70
2023-03-19T01:35:48.122Z,6.80
2023-03-19T01:38:15.074Z,6.70
2023-03-19T01:40:46.199Z,6.70
2023-03-19T01:43:24.442Z,6.50
2023-03-19T01:45:55.577Z,6.50
2023-03-19T01:48:22.218Z,6.50
2023-03-19T01:50:50.730Z,6.50
2023-03-19T01:53:19.741Z,6.50
2023-03-19T01:55:47.391Z,6.40
2023-03-19T01:58:14.473Z,6.30
2023-03-19T02:00:41.911Z,6.30
2023-03-19T02:03:09.510Z,6.40
2023-03-19T02:05:37.916Z,6.50
2023-03-19T02:08:07.412Z,6.50
2023-03-19T02:10:34.705Z,6.50
2023-03-19T02:13:01.552Z,6.50
2023-03-19T02:15:28.718Z,6.40
2023-03-19T02:17:55.518Z,6.50
2023-03-19T02:20:35.161Z,6.50
2023-03-19T02:23:15.035Z,6.60
2023-03-19T02:25:47.564Z,6.70
2023-03-19T02:28:19.551Z,6.80
2023-03-19T02:30:46.249Z,6.70
2023-03-19T02:33:14.328Z,6.70
2023-03-19T02:35:42.444Z,6.70
2023-03-19T02:38:11.324Z,6.80
2023-03-19T02:41:00.827Z,6.80
2023-03-19T02:43:28.360Z,6.90
2023-03-19T02:45:55.378Z,6.80
2023-03-19T02:48:22.299Z,6.80
2023-03-19T02:50:48.975Z,6.80
2023-03-19T02:53:15.977Z,6.80
2023-03-19T02:55:43.160Z,6.80
2023-03-19T02:58:09.997Z,6.80
2023-03-19T03:00:37.521Z,6.80
2023-03-19T03:03:06.727Z,6.80
2023-03-19T03:05:34.147Z,6.80
2023-03-19T03:08:00.875Z,6.80
2023-03-19T03:10:27.848Z,6.70
2023-03-19T03:12:54.784Z,6.70
2023-03-19T03:15:21.707Z,6.70
2023-03-19T03:17:48.564Z,6.70
2023-03-19T03:20:17.688Z,6.80
2023-03-19T03:22:44.519Z,6.80
2023-03-19T03:25:12.124Z,6.70
2023-03-19T03:27:39.126Z,6.70
2023-03-19T03:30:10.664Z,6.70
2023-03-19T03:32:38.882Z,6.70
2023-03-19T03:35:08.238Z,6.80
2023-03-19T03:37:35.462Z,6.70
2023-03-19T03:40:06.745Z,6.80
2023-03-19T03:42:33.648Z,6.80
2023-03-19T03:45:00.825Z,6.70
2023-03-19T03:47:27.634Z,6.70
2023-03-19T03:49:54.355Z,6.70
2023-03-19T03:52:21.214Z,6.60
2023-03-19T03:54:47.915Z,6.70
2023-03-19T03:57:14.601Z,6.70
2023-03-19T03:59:41.897Z,6.70
2023-03-19T04:02:09.398Z,6.70
2023-03-19T04:04:36.136Z,6.70
2023-03-19T04:07:02.868Z,6.70
2023-03-19T04:09:29.604Z,6.70
2023-03-19T04:11:56.272Z,6.70
2023-03-19T04:14:22.943Z,6.80
2023-03-19T04:16:49.757Z,6.80
2023-03-19T04:19:16.889Z,6.90
2023-03-19T04:21:44.947Z,6.90
2023-03-19T04:24:11.999Z,7.00
2023-03-19T04:26:39.206Z,7.00
2023-03-19T04:29:08.242Z,7.10
2023-03-19T04:31:35.122Z,7.10
2023-03-19T04:34:01.913Z,7.10
2023-03-19T04:36:28.982Z,7.00
2023-03-19T04:38:55.884Z,6.90
2023-03-19T04:41:22.657Z,6.90
2023-03-19T04:46:16.953Z,6.70
2023-03-19T04:48:43.802Z,6.50
2023-03-19T04:51:10.608Z,6.40
2023-03-19T04:53:38.779Z,6.40
2023-03-19T04:56:07.062Z,6.50
2023-03-19T04:58:34.406Z,6.60
2023-03-19T05:01:01.258Z,6.60
2023-03-19T05:03:28.034Z,6.60
2023-03-19T05:05:55.259Z,6.60
2023-03-19T05:08:22.016Z,6.50
2023-03-19T05:10:48.757Z,6.50
2023-03-19T05:13:16.039Z,6.40
2023-03-19T05:15:44.089Z,6.30
2023-03-19T05:18:11.382Z,6.30
2023-03-19T05:20:39.310Z,6.10
2023-03-19T05:23:06.588Z,6.00
2023-03-19T05:25:35.225Z,5.90
2023-03-19T05:28:02.787Z,5.90
2023-03-19T05:30:29.639Z,6.00
2023-03-19T05:32:57.904Z,5.90
2023-03-19T05:35:25.767Z,6.00
2023-03-19T05:37:52.581Z,5.90
2023-03-19T05:40:19.412Z,5.70
2023-03-19T05:42:46.169Z,5.60
2023-03-19T05:45:12.917Z,5.60
2023-03-19T05:47:39.975Z,5.50
2023-03-19T05:50:07.721Z,5.50
2023-03-19T05:52:34.511Z,5.50
2023-03-19T05:55:01.466Z,5.40
2023-03-19T05:57:28.301Z,5.40
2023-03-19T05:59:54.988Z,5.30
2023-03-19T06:02:22.098Z,5.40
2023-03-19T06:04:48.808Z,5.40
2023-03-19T06:07:15.629Z,5.40
2023-03-19T06:09:42.681Z,5.40
2023-03-19T06:14:36.675Z,5.50
2023-03-19T06:17:03.691Z,5.60
2023-03-19T06:21:57.633Z,5.60
2023-03-19T06:24:24.382Z,5.60
2023-03-19T06:26:51.167Z,6.10
2023-03-19T06:29:18.002Z,6.60
2023-03-19T06:31:44.952Z,7.10
2023-03-19T06:34:11.818Z,7.60
2023-03-19T06:36:38.638Z,8.00
2023-03-19T06:39:05.504Z,8.30
2023-03-19T06:41:32.464Z,8.70
2023-03-19T06:43:59.152Z,9.50
2023-03-19T06:46:26.128Z,10.60
2023-03-19T06:48:53.400Z,11.20
2023-03-19T06:51:20.336Z,11.20
2023-03-19T06:53:47.042Z,12.80
2023-03-19T06:56:13.730Z,13.60
2023-03-19T06:58:40.447Z,14.30
2023-03-19T07:01:07.621Z,14.60
2023-03-19T07:03:34.512Z,15.10
2023-03-19T07:06:01.262Z,15.60
2023-03-19T07:08:29.902Z,15.60
2023-03-19T07:10:57.294Z,16.60
2023-03-19T07:13:24.055Z,16.70
2023-03-19T07:15:50.928Z,17.20
2023-03-19T07:18:17.619Z,17.50
2023-03-19T07:20:44.303Z,18.20
2023-03-19T07:23:11.000Z,18.30
2023-03-19T07:25:37.774Z,19.30
2023-03-19T07:28:04.803Z,19.40
2023-03-19T07:30:32.068Z,19.30
2023-03-19T07:32:58.920Z,17.30
2023-03-19T07:35:25.661Z,17.20
2023-03-19T07:37:52.491Z,16.20
2023-03-19T07:40:19.340Z,15.30
2023-03-19T07:42:46.632Z,13.70
2023-03-19T07:45:13.554Z,13.20
2023-03-19T07:47:40.536Z,12.60
2023-03-19T07:50:07.856Z,12.20
2023-03-19T07:52:34.861Z,11.90
2023-03-19T07:55:01.642Z,12.10
2023-03-19T07:57:28.351Z,12.60
2023-03-19T07:59:55.033Z,13.40
2023-03-19T08:02:23.567Z,13.90
2023-03-19T08:04:50.774Z,15.10
2023-03-19T08:07:17.745Z,16.00
2023-03-19T08:09:44.481Z,16.40
2023-03-19T08:12:11.500Z,15.90
2023-03-19T08:14:38.244Z,15.60
2023-03-19T08:17:05.720Z,15.20
2023-03-19T08:19:32.709Z,15.00
2023-03-19T08:21:59.431Z,14.70
2023-03-19T08:24:26.470Z,15.30
2023-03-19T08:26:53.416Z,16.10
2023-03-19T08:29:20.252Z,16.80
2023-03-19T08:31:47.041Z,16.80
2023-03-19T08:34:13.790Z,17.10
2023-03-19T08:36:40.758Z,17.90
2023-03-19T08:39:07.561Z,17.60
2023-03-19T08:41:34.388Z,17.00
2023-03-19T08:44:01.199Z,17.00
2023-03-19T08:46:29.302Z,18.00
2023-03-19T08:48:56.393Z,18.20
2023-03-19T08:51:26.009Z,18.10
2023-03-19T08:53:53.396Z,18.20
2023-03-19T08:56:20.708Z,18.20
2023-03-19T08:58:47.462Z,17.90
2023-03-19T09:01:15.069Z,18.50
2023-03-19T09:03:45.002Z,18.50
2023-03-19T09:06:12.669Z,17.90
2023-03-19T09:08:39.342Z,15.80
2023-03-19T09:11:06.645Z,15.50
2023-03-19T09:13:34.008Z,15.20
2023-03-19T09:16:01.477Z,15.20
2023-03-19T09:18:28.296Z,16.00
2023-03-19T09:20:55.310Z,16.00
2023-03-19T09:23:23.068Z,17.30
2023-03-19T09:25:51.035Z,16.90
2023-03-19T09:28:18.324Z,16.60
2023-03-19T09:30:49.835Z,16.50
2023-03-19T09:33:17.679Z,16.00
2023-03-19T09:35:50.382Z,15.60
2023-03-19T09:38:17.191Z,15.30
2023-03-19T09:40:49.413Z,15.10
2023-03-19T09:43:54.925Z,15.00
2023-03-19T09:46:29.629Z,15.10
2023-03-19T09:49:03.063Z,15.40
2023-03-19T09:51:49.921Z,15.70
2023-03-19T09:54:39.322Z,15.40
2023-03-19T09:57:09.998Z,15.30
2023-03-19T09:59:37.836Z,14.90
2023-03-19T10:02:32.505Z,14.70
2023-03-19T10:05:14.319Z,14.70
2023-03-19T10:08:36.557Z,14.60
2023-03-19T10:11:19.218Z,14.60
2023-03-19T10:14:04.673Z,14.50
2023-03-19T10:16:31.581Z,14.30
2023-03-19T10:19:06.384Z,14.10
2023-03-19T10:21:42.422Z,14.10
2023-03-19T10:24:13.965Z,14.10
2023-03-19T10:26:41.847Z,14.10
2023-03-19T10:29:08.591Z,14.20
2023-03-19T10:32:05.897Z,14.10
2023-03-19T10:34:35.511Z,14.20
2023-03-19T10:37:05.935Z,14.20
2023-03-19T10:39:38.217Z,14.20
2023-03-19T10:42:33.278Z,14.30
2023-03-19T10:45:09.018Z,14.70
2023-03-19T10:47:39.584Z,15.20
2023-03-19T10:50:06.956Z,15.30
2023-03-19T10:52:37.934Z,15.40
2023-03-19T10:55:23.308Z,15.70
2023-03-19T10:57:56.168Z,15.80
2023-03-19T11:00:25.445Z,16.10
2023-03-19T11:02:54.877Z,16.40
2023-03-19T11:05:21.521Z,16.00
2023-03-19T11:07:57.391Z,15.80
2023-03-19T11:10:27.224Z,15.80
2023-03-19T11:13:00.606Z,15.60
2023-03-19T11:15:38.712Z,15.40
2023-03-19T11:18:28.265Z,15.40
2023-03-19T11:20:59.613Z,15.20
2023-03-19T11:23:31.466Z,14.90
2023-03-19T11:26:04.408Z,14.80
2023-03-19T11:28:34.343Z,14.70
2023-03-19T11:31:14.043Z,14.80
2023-03-19T11:33:55.734Z,14.80
2023-03-19T11:36:38.445Z,14.80
2023-03-19T11:39:21.449Z,14.70
2023-03-19T11:42:30.016Z,14.60
2023-03-19T11:44:59.733Z,14.50
2023-03-19T11:47:41.776Z,14.30
2023-03-19T11:50:23.166Z,14.20
2023-03-19T11:53:07.971Z,14.20
2023-03-19T11:55:54.414Z,14.20
2023-03-19T11:58:42.276Z,14.10
2023-03-19T12:01:33.260Z,14.10
2023-03-19T12:04:36.367Z,14.20
2023-03-19T12:07:50.846Z,14.30
2023-03-19T12:10:35.912Z,14.50
2023-03-19T12:13:20.663Z,14.50
2023-03-19T12:16:15.950Z,14.70
2023-03-19T12:18:45.775Z,14.80
2023-03-19T12:21:25.832Z,14.90
2023-03-19T12:24:02.247Z,15.00
2023-03-19T12:26:35.011Z,14.80
2023-03-19T12:29:24.109Z,14.70
2023-03-19T12:31:57.132Z,14.60
2023-03-19T12:34:36.088Z,14.70
2023-03-19T12:37:27.214Z,14.90
2023-03-19T12:40:20.728Z,14.90
2023-03-19T12:42:47.555Z,15.00
2023-03-19T12:45:36.765Z,15.10
2023-03-19T12:48:35.344Z,15.10
2023-03-19T12:51:11.191Z,15.30
2023-03-19T12:53:49.283Z,15.50
2023-03-19T12:56:38.472Z,15.60
2023-03-19T12:59:36.875Z,15.50
2023-03-19T13:02:06.092Z,15.20
2023-03-19T13:04:41.604Z,15.10
2023-03-19T13:07:32.293Z,15.10
2023-03-19T13:10:06.768Z,14.90
2023-03-19T13:12:38.184Z,14.90
2023-03-19T13:15:13.052Z,14.80
2023-03-19T13:18:13.481Z,14.70
2023-03-19T13:21:01.402Z,14.70
2023-03-19T13:23:32.471Z,14.70
2023-03-19T13:26:01.266Z,14.60
2023-03-19T13:28:31.769Z,14.60
2023-03-19T13:31:18.979Z,14.70
2023-03-19T13:34:01.806Z,14.90
2023-03-19T13:36:30.905Z,15.10
2023-03-19T13:39:00.493Z,15.30
2023-03-19T13:41:33.268Z,15.30
2023-03-19T13:44:23.448Z,15.20
2023-03-19T13:46:51.422Z,15.20
2023-03-19T13:49:28.197Z,15.30
2023-03-19T13:52:14.852Z,15.30
2023-03-19T13:54:45.993Z,15.50
2023-03-19T13:57:16.465Z,16.00
2023-03-19T13:59:46.761Z,16.00
2023-03-19T14:02:22.151Z,15.80
2023-03-19T14:05:02.630Z,15.70
2023-03-19T14:07:37.142Z,15.60
2023-03-19T14:10:07.843Z,15.50
2023-03-19T14:12:40.141Z,15.50
2023-03-19T14:15:09.910Z,15.40
2023-03-19T14:17:42.628Z,15.30
2023-03-19T14:20:16.702Z,15.40
2023-03-19T14:23:08.962Z,15.30
2023-03-19T14:25:54.705Z,15.20
2023-03-19T14:28:47.629Z,15.20
2023-03-19T14:31:22.446Z,15.20
2023-03-19T14:34:15.094Z,15.30
2023-03-19T14:36:53.909Z,15.30
2023-03-19T14:39:27.662Z,15.70
2023-03-19T14:42:04.948Z,16.10
2023-03-19T14:45:02.129Z,16.50
2023-03-19T14:47:56.471Z,16.30
2023-03-19T14:50:35.882Z,16.00
2023-03-19T14:53:17.628Z,15.80
2023-03-19T14:55:51.170Z,15.80
2023-03-19T14:58:20.409Z,15.70
2023-03-19T15:00:50.208Z,15.60
2023-03-19T15:03:37.004Z,15.50
2023-03-19T15:06:07.574Z,15.50
2023-03-19T15:08:39.649Z,15.50
2023-03-19T15:11:16.043Z,15.50
2023-03-19T15:14:24.452Z,15.40
2023-03-19T15:17:11.234Z,15.40
2023-03-19T15:19:39.540Z,15.40
2023-03-19T15:22:21.323Z,15.40
2023-03-19T15:24:49.151Z,15.40
2023-03-19T15:27:19.998Z,15.50
2023-03-19T15:29:49.257Z,15.90
2023-03-19T15:32:54.408Z,16.00
2023-03-19T15:35:29.485Z,15.80
2023-03-19T15:38:00.428Z,15.80
2023-03-19T15:40:30.758Z,15.70
2023-03-19T15:43:01.242Z,15.70
2023-03-19T15:45:29.737Z,15.60
2023-03-19T15:48:08.568Z,15.60
2023-03-19T15:50:40.127Z,15.40
2023-03-19T15:53:12.746Z,15.20
2023-03-19T15:55:39.758Z,15.20
2023-03-19T15:58:11.496Z,15.20
2023-03-19T16:00:41.861Z,15.10
2023-03-19T16:03:16.329Z,15.00
2023-03-19T16:05:43.421Z,15.00
2023-03-19T16:08:24.925Z,14.90
2023-03-19T16:10:52.669Z,14.80
2023-03-19T16:13:29.938Z,14.80
2023-03-19T16:16:05.352Z,14.70
2023-03-19T16:18:52.178Z,14.60
2023-03-19T16:21:27.831Z,14.30
2023-03-19T16:24:19.988Z,14.10
2023-03-19T16:26:48.450Z,13.90
2023-03-19T16:29:18.417Z,13.70
2023-03-19T16:31:51.881Z,13.60
2023-03-19T16:34:43.519Z,13.30
2023-03-19T16:37:38.262Z,13.10
2023-03-19T16:40:14.093Z,13.00
2023-03-19T16:42:42.300Z,13.00
2023-03-19T16:45:18.198Z,13.00
2023-03-19T16:47:56.991Z,13.00
2023-03-19T16:50:37.335Z,12.80
2023-03-19T16:53:10.797Z,12.80
2023-03-19T16:55:38.096Z,12.80
2023-03-19T16:58:21.789Z,12.80
2023-03-19T17:00:48.783Z,12.70
2023-03-19T17:03:18.001Z,12.70
2023-03-19T17:05:48.314Z,12.60
2023-03-19T17:08:16.022Z,12.60
2023-03-19T17:10:46.171Z,12.50
2023-03-19T17:13:21.289Z,12.50
2023-03-19T17:15:49.673Z,12.40
2023-03-19T17:18:25.266Z,12.30
2023-03-19T17:21:00.792Z,12.30
2023-03-19T17:23:28.033Z,12.20
2023-03-19T17:25:55.125Z,12.10
2023-03-19T17:28:22.029Z,12.10
2023-03-19T17:30:50.066Z,12.00
2023-03-19T17:33:28.543Z,12.00
2023-03-19T17:35:57.468Z,12.00
2023-03-19T17:38:32.430Z,12.00
2023-03-19T17:40:59.339Z,12.00
2023-03-19T17:43:26.122Z,11.90
2023-03-19T17:45:54.643Z,11.80
2023-03-19T17:48:26.477Z,11.70
2023-03-19T17:50:58.267Z,11.60
2023-03-19T17:53:25.091Z,11.50
2023-03-19T17:55:51.857Z,11.50
2023-03-19T17:58:21.169Z,11.50
2023-03-19T18:00:49.662Z,11.50
2023-03-19T18:03:21.113Z,11.50
2023-03-19T18:05:50.248Z,11.50
2023-03-19T18:08:20.792Z,11.50
2023-03-19T18:10:47.578Z,11.50
2023-03-19T18:13:14.458Z,11.40
2023-03-19T18:15:44.528Z,11.40
2023-03-19T18:18:21.098Z,11.30
2023-03-19T18:20:48.525Z,11.30
2023-03-19T18:23:16.211Z,11.20
2023-03-19T18:25:46.208Z,11.20
2023-03-19T18:28:13.354Z,11.20
2023-03-19T18:30:41.657Z,11.10
2023-03-19T18:33:19.782Z,11.10
2023-03-19T18:35:47.280Z,11.10
2023-03-19T18:38:19.991Z,11.00
2023-03-19T18:40:47.643Z,10.90
2023-03-19T18:43:16.216Z,10.90
2023-03-19T18:45:45.723Z,10.90
2023-03-19T18:48:21.292Z,10.90
2023-03-19T18:50:48.514Z,10.80
2023-03-19T18:53:17.019Z,10.80
2023-03-19T18:55:44.664Z,10.70
2023-03-19T18:58:21.734Z,10.70
2023-03-19T19:00:49.618Z,10.70
2023-03-19T19:03:19.793Z,10.70
2023-03-19T19:05:46.636Z,10.70
2023-03-19T19:08:19.432Z,10.70
2023-03-19T19:10:55.373Z,10.60
2023-03-19T19:13:30.263Z,10.60
2023-03-19T19:15:57.095Z,10.50
2023-03-19T19:18:30.592Z,10.50
2023-03-19T19:20:58.518Z,10.60
2023-03-19T19:23:30.108Z,10.60
2023-03-19T19:25:56.968Z,10.60
2023-03-19T19:28:32.628Z,10.60
2023-03-19T19:31:00.474Z,10.60
2023-03-19T19:33:31.700Z,10.60
2023-03-19T19:38:25.624Z,10.60
2023-03-19T19:40:54.910Z,10.60
2023-03-19T19:43:24.313Z,10.70
2023-03-19T19:45:55.937Z,10.70
2023-03-19T19:48:27.993Z,10.70
2023-03-19T19:50:56.249Z,10.70
2023-03-19T19:53:29.413Z,10.70
2023-03-19T19:55:56.526Z,10.70
2023-03-19T19:58:31.452Z,10.70
2023-03-19T20:01:04.380Z,10.80
2023-03-19T20:03:33.428Z,10.80
2023-03-19T20:06:01.508Z,10.80
2023-03-19T20:08:28.817Z,10.90
2023-03-19T20:10:56.738Z,11.00
2023-03-19T20:13:25.574Z,11.00
2023-03-19T20:15:57.475Z,11.10
2023-03-19T20:18:30.770Z,11.10
2023-03-19T20:20:59.374Z,11.20
2023-03-19T20:23:26.588Z,11.20
2023-03-19T20:25:54.293Z,11.20
2023-03-19T20:28:34.145Z,11.20
2023-03-19T20:31:04.593Z,11.30
2023-03-19T20:33:32.454Z,11.30
2023-03-19T20:35:59.238Z,11.30
2023-03-19T20:38:27.437Z,11.30
2023-03-19T20:40:56.735Z,11.30
2023-03-19T20:43:28.084Z,11.30
2023-03-19T20:45:57.274Z,11.30
2023-03-19T20:48:25.695Z,11.30
2023-03-19T20:50:52.583Z,11.30
2023-03-19T20:53:19.648Z,11.30
2023-03-19T20:55:47.888Z,11.40
2023-03-19T20:58:29.517Z,11.30
2023-03-19T21:00:58.011Z,11.40
2023-03-19T21:03:27.092Z,11.40
2023-03-19T21:05:58.239Z,11.40
2023-03-19T21:08:38.970Z,11.40
2023-03-19T21:11:08.949Z,11.40
2023-03-19T21:13:35.651Z,11.40
2023-03-19T21:16:02.648Z,11.40
2023-03-19T21:18:29.474Z,11.40
2023-03-19T21:20:57.850Z,11.30
2023-03-19T21:23:35.270Z,11.30
2023-03-19T21:26:23.919Z,11.30
2023-03-19T21:29:00.189Z,11.30
2023-03-19T21:31:27.266Z,11.20
2023-03-19T21:33:55.855Z,11.20
2023-03-19T21:36:23.939Z,11.10
2023-03-19T21:38:52.491Z,11.10
2023-03-19T21:41:26.049Z,11.10
2023-03-19T21:43:56.259Z,11.00
2023-03-19T21:46:26.518Z,11.00
2023-03-19T21:48:58.124Z,11.00
2023-03-19T21:51:26.427Z,11.10
2023-03-19T21:53:53.132Z,11.10
2023-03-19T21:56:32.760Z,11.10
2023-03-19T21:59:09.699Z,11.10
2023-03-19T22:01:36.429Z,11.00
2023-03-19T22:04:03.239Z,11.00
2023-03-19T22:06:29.998Z,11.00
2023-03-19T22:08:56.920Z,10.90
2023-03-19T22:11:28.353Z,10.80
2023-03-19T22:14:19.015Z,10.60
2023-03-19T22:16:47.392Z,10.50
2023-03-19T22:19:15.833Z,10.40
2023-03-19T22:21:42.643Z,10.50
2023-03-19T22:24:09.355Z,10.40
2023-03-19T22:26:46.394Z,10.30
2023-03-19T22:29:14.898Z,10.30
2023-03-19T22:31:41.991Z,10.20
2023-03-19T22:34:16.596Z,10.20
2023-03-19T22:36:43.878Z,10.10
2023-03-19T22:39:10.581Z,10.10
2023-03-19T22:41:42.610Z,10.20
2023-03-19T22:44:32.529Z,10.20
2023-03-19T22:47:01.669Z,10.10
2023-03-19T22:49:29.694Z,10.10
2023-03-19T22:51:57.667Z,10.00
2023-03-19T22:54:24.486Z,10.00
2023-03-19T22:56:51.140Z,9.90
2023-03-19T22:59:18.567Z,9.90
2023-03-19T23:01:47.199Z,9.80
2023-03-19T23:04:22.684Z,9.70
2023-03-19T23:06:50.487Z,9.70
2023-03-19T23:09:20.300Z,9.70
2023-03-19T23:11:48.399Z,9.60
2023-03-19T23:14:28.425Z,9.60
2023-03-19T23:19:28.215Z,9.50
2023-03-19T23:21:55.416Z,9.40
2023-03-19T23:24:22.518Z,9.30
2023-03-19T23:26:50.661Z,9.30
2023-03-19T23:29:29.399Z,9.20
2023-03-19T23:31:58.589Z,9.10
2023-03-19T23:34:26.170Z,8.80
2023-03-19T23:36:53.529Z,8.80
2023-03-19T23:39:21.096Z,8.60
2023-03-19T23:41:50.843Z,8.50
2023-03-19T23:44:19.434Z,8.50
2023-03-19T23:46:49.263Z,8.40
2023-03-19T23:49:23.142Z,8.20
2023-03-19T23:51:49.846Z,8.10
2023-03-19T23:54:37.792Z,8.10
2023-03-19T23:57:07.064Z,8.10
2023-03-19T23:59:36.990Z,8.10
